Time;durP1;ratioP1;P1;durP2;ratioP2;P2;SDS_P1;SDS_P2;PMS_P1;PMS_P2;Temp;Humidity;BMP_temperature;BMP_pressure;BME280_temperature;BME280_humidity;BME280_pressure;Samples;Min_cycle;Max_cycle;Signal;HPM_P1;HPM_P2
2022/11/24 00:01:10;;;;;;;6.13;2.50;;;;;;;7.94;100.00;99594.31;4983272;28;21456;-71
2022/11/24 00:03:35;;;;;;;6.30;2.37;;;;;;;7.97;100.00;99592.56;4985112;28;22167;-71
2022/11/24 00:06:03;;;;;;;4.30;2.07;;;;;;;7.98;100.00;99589.13;4985406;28;20204;-71
2022/11/24 00:08:28;;;;;;;4.53;2.30;;;;;;;8.00;100.00;99592.56;4984609;28;20697;-71
2022/11/24 00:10:54;;;;;;;5.63;2.13;;;;;;;8.01;100.00;99596.84;4984132;28;20280;-72
2022/11/24 00:13:19;;;;;;;2.90;1.83;;;;;;;8.03;100.00;99597.69;4982532;28;20880;-72
2022/11/24 00:15:44;;;;;;;4.63;2.50;;;;;;;8.04;100.00;99594.25;4986281;28;20188;-72
2022/11/24 00:18:09;;;;;;;5.60;2.40;;;;;;;8.04;100.00;99597.66;4984345;28;20287;-71
2022/11/24 00:20:35;;;;;;;6.57;2.37;;;;;;;8.08;100.00;99593.34;4985908;28;20219;-72
2022/11/24 00:23:00;;;;;;;5.40;2.20;;;;;;;8.12;100.00;99602.72;4984826;28;20208;-72
2022/11/24 00:25:25;;;;;;;3.00;1.67;;;;;;;8.13;100.00;99601.03;4987835;28;20641;-72
2022/11/24 00:27:51;;;;;;;5.67;2.17;;;;;;;8.15;100.00;99604.44;4983503;28;20577;-72
2022/11/24 00:30:16;;;;;;;3.97;2.03;;;;;;;8.17;100.00;99603.56;4991953;28;20179;-72
2022/11/24 00:32:42;;;;;;;5.67;1.93;;;;;;;8.18;100.00;99605.25;4984000;28;20195;-70
2022/11/24 00:35:07;;;;;;;9.43;1.83;;;;;;;8.20;100.00;99606.09;4986546;28;20316;-74
2022/11/24 00:37:33;;;;;;;3.73;2.03;;;;;;;8.20;100.00;99608.69;4985314;28;20587;-71
2022/11/24 00:39:58;;;;;;;4.80;2.00;;;;;;;8.22;100.00;99609.53;4985129;28;20213;-72
2022/11/24 00:42:23;;;;;;;5.00;1.70;;;;;;;8.21;100.00;99605.25;4983528;28;20189;-72
2022/11/24 00:44:49;;;;;;;5.07;2.20;;;;;;;8.21;100.00;99612.97;4984019;28;20753;-71
2022/11/24 00:47:14;;;;;;;3.80;2.17;;;;;;;8.23;100.00;99611.22;4985233;28;20177;-71
2022/11/24 00:49:39;;;;;;;4.63;2.10;;;;;;;8.24;100.00;99615.50;4984679;28;20200;-71
2022/11/24 00:52:05;;;;;;;5.27;1.77;;;;;;;8.24;100.00;99610.34;4983168;28;20195;-72
2022/11/24 00:54:30;;;;;;;4.90;2.13;;;;;;;8.27;100.00;99618.91;4985495;28;20208;-71
2022/11/24 00:56:55;;;;;;;5.63;1.60;;;;;;;8.27;100.00;99619.78;4985878;28;20607;-71
2022/11/24 00:59:20;;;;;;;3.97;1.97;;;;;;;8.29;100.00;99622.34;4984789;28;20692;-71
2022/11/24 01:01:46;;;;;;;4.97;2.40;;;;;;;8.27;100.00;99618.91;4985194;28;20986;-73
2022/11/24 01:04:11;;;;;;;3.57;1.80;;;;;;;8.25;100.00;99634.41;4980526;28;20291;-73
2022/11/24 01:06:36;;;;;;;5.37;1.80;;;;;;;8.21;100.00;99638.75;4984652;28;20189;-74
2022/11/24 01:09:03;;;;;;;5.63;2.27;;;;;;;8.23;100.00;99644.75;4985467;28;20205;-74
2022/11/24 01:12:00;;;;;;;3.40;1.47;;;;;;;8.25;100.00;99636.97;4983907;28;20299;-74
2022/11/24 01:14:21;;;;;;;5.00;2.00;;;;;;;8.27;100.00;99642.13;4982470;28;20665;-73
2022/11/24 01:16:46;;;;;;;5.07;2.00;;;;;;;8.27;100.00;99644.69;4990265;28;20194;-74
2022/11/24 01:19:12;;;;;;;6.07;1.83;;;;;;;8.28;100.00;99644.69;4989687;28;20672;-73
2022/11/24 01:21:37;;;;;;;4.57;1.80;;;;;;;8.31;100.00;99652.41;4988156;28;20190;-71
2022/11/24 01:24:02;;;;;;;4.00;1.60;;;;;;;8.33;100.00;99648.06;4986577;28;20276;-71
2022/11/24 01:26:28;;;;;;;5.90;2.00;;;;;;;8.33;100.00;99645.47;4989295;28;20188;-72
2022/11/24 01:28:55;;;;;;;3.07;1.37;;;;;;;8.34;100.00;99652.34;4989499;28;20632;-74
2022/11/24 01:31:21;;;;;;;3.53;1.57;;;;;;;8.36;100.00;99654.94;4988749;28;20185;-72
2022/11/24 01:33:46;;;;;;;4.17;1.67;;;;;;;8.36;100.00;99647.19;4984724;28;20262;-73
2022/11/24 01:36:12;;;;;;;3.27;1.57;;;;;;;8.37;100.00;99657.47;4988188;28;20185;-74
2022/11/24 01:38:37;;;;;;;4.47;1.60;;;;;;;8.39;100.00;99658.31;4987247;28;20232;-71
2022/11/24 01:41:07;;;;;;;4.23;1.63;;;;;;;8.42;100.00;99659.16;4988877;28;20196;-72
2022/11/24 01:43:33;;;;;;;5.00;1.80;;;;;;;8.40;100.00;99651.44;4986830;28;20185;-71
2022/11/24 01:46:10;;;;;;;3.83;1.70;;;;;;;8.42;100.00;99665.16;4988997;28;20189;-72
2022/11/24 01:48:42;;;;;;;3.47;1.70;;;;;;;8.42;100.00;99660.00;4987048;28;20204;-72
2022/11/24 01:51:16;;;;;;;5.93;1.73;;;;;;;8.44;100.00;99660.00;4989203;28;20737;-73
2022/11/24 01:53:45;;;;;;;3.60;1.57;;;;;;;8.45;100.00;99664.31;4987589;28;20239;-73
2022/11/24 01:56:12;;;;;;;4.87;2.00;;;;;;;8.46;100.00;99671.16;4989744;28;20650;-74
2022/11/24 01:58:41;;;;;;;3.60;1.70;;;;;;;8.46;100.00;99672.00;4988858;28;20201;-73
2022/11/24 02:01:07;;;;;;;3.40;1.43;;;;;;;8.47;100.00;99663.41;4986874;28;20189;-72
2022/11/24 02:03:36;;;;;;;4.77;1.70;;;;;;;8.47;100.00;99652.25;4987246;28;20192;-71
2022/11/24 02:06:08;;;;;;;4.63;1.87;;;;;;;8.47;100.00;99665.97;4987072;28;20775;-72
2022/11/24 02:08:39;;;;;;;2.67;1.40;;;;;;;8.48;100.00;99654.84;4987821;28;20599;-72
2022/11/24 02:11:04;;;;;;;5.53;1.90;;;;;;;8.47;100.00;99663.41;4987504;28;20192;-71
2022/11/24 02:13:33;;;;;;;4.20;1.80;;;;;;;8.51;100.00;99653.94;4992568;28;20176;-72
2022/11/24 02:15:59;;;;;;;2.77;1.47;;;;;;;8.50;100.00;99652.22;4987975;28;20339;-72
2022/11/24 02:18:24;;;;;;;4.07;1.80;;;;;;;8.45;100.00;99656.56;4988089;28;20336;-72
2022/11/24 02:20:50;;;;;;;3.23;1.67;;;;;;;8.39;100.00;99654.91;4986841;28;20185;-71
2022/11/24 02:23:25;;;;;;;5.27;1.60;;;;;;;8.31;100.00;99649.84;4986093;28;20235;-72
2022/11/24 02:25:58;;;;;;;3.60;1.93;;;;;;;8.22;100.00;99650.78;4990967;28;20191;-71
2022/11/24 02:28:28;;;;;;;4.27;1.60;;;;;;;8.11;100.00;99655.16;4989163;28;20215;-72
2022/11/24 02:30:54;;;;;;;3.03;1.53;;;;;;;7.99;100.00;99661.28;4986141;28;20175;-71
2022/11/24 02:33:21;;;;;;;4.13;2.00;;;;;;;7.93;100.00;99657.03;4988069;28;20184;-72
2022/11/24 02:35:46;;;;;;;4.33;1.63;;;;;;;7.87;100.00;99658.78;4994644;28;20188;-71
2022/11/24 02:38:13;;;;;;;4.50;1.70;;;;;;;7.79;100.00;99653.69;4989424;28;20201;-71
2022/11/24 02:40:43;;;;;;;3.40;1.53;;;;;;;7.70;100.00;99646.91;4985674;28;20302;-71
2022/11/24 02:43:12;;;;;;;2.90;1.80;;;;;;;7.63;100.00;99652.97;4985534;28;20283;-73
2022/11/24 02:45:38;;;;;;;5.13;2.20;;;;;;;7.57;100.00;99653.00;4983432;28;20190;-73
2022/11/24 02:48:04;;;;;;;4.43;1.93;;;;;;;7.51;100.00;99655.63;4993043;28;20250;-73
2022/11/24 02:50:29;;;;;;;4.37;1.80;;;;;;;7.47;100.00;99658.22;4983245;28;20244;-72
2022/11/24 02:52:54;;;;;;;6.40;2.27;;;;;;;7.44;100.00;99662.53;4985637;28;20772;-72
2022/11/24 02:55:20;;;;;;;5.13;2.37;;;;;;;7.38;100.00;99668.59;4985681;28;20224;-73
2022/11/24 02:57:45;;;;;;;5.37;1.93;;;;;;;7.31;100.00;99683.22;4988130;28;20196;-71
2022/11/24 03:00:11;;;;;;;6.30;2.13;;;;;;;7.27;100.00;99673.78;4989049;28;20216;-71
2022/11/24 03:02:36;;;;;;;5.47;2.27;;;;;;;7.20;100.00;99669.53;4984866;28;20296;-72
2022/11/24 03:05:02;;;;;;;7.53;2.40;;;;;;;7.17;100.00;99670.41;4989954;28;20183;-72
2022/11/24 03:07:27;;;;;;;7.53;2.47;;;;;;;7.16;100.00;99678.13;4989883;28;20189;-71
2022/11/24 03:09:52;;;;;;;4.53;2.07;;;;;;;7.19;100.00;99670.38;4981747;28;20698;-72
2022/11/24 03:12:18;;;;;;;10.00;2.80;;;;;;;7.18;100.00;99666.13;4986247;28;20843;-73
2022/11/24 03:14:43;;;;;;;6.37;2.17;;;;;;;7.15;100.00;99668.72;4988123;28;20188;-73
2022/11/24 03:17:08;;;;;;;4.93;1.93;;;;;;;7.18;100.00;99671.28;4985874;28;20800;-72
2022/11/24 03:19:34;;;;;;;5.10;2.00;;;;;;;7.22;100.00;99672.94;4989280;28;20287;-72
2022/11/24 03:21:59;;;;;;;4.60;2.10;;;;;;;7.21;100.00;99671.22;4992378;28;20185;-72
2022/11/24 03:24:24;;;;;;;6.93;2.20;;;;;;;7.20;100.00;99674.66;4985308;28;20523;-72
2022/11/24 03:26:50;;;;;;;6.70;2.40;;;;;;;7.17;100.00;99672.97;4985858;28;20235;-72
2022/11/24 03:29:16;;;;;;;5.63;2.17;;;;;;;7.17;100.00;99678.13;4988824;28;20193;-72
2022/11/24 03:31:41;;;;;;;5.73;1.83;;;;;;;7.20;100.00;99684.13;4985977;28;20202;-72
2022/11/24 03:34:06;;;;;;;9.57;2.83;;;;;;;7.26;100.00;99682.38;4987150;28;20232;-72
2022/11/24 03:36:32;;;;;;;6.60;2.50;;;;;;;7.34;100.00;99674.59;4987005;28;20222;-73
2022/11/24 03:38:57;;;;;;;6.47;2.47;;;;;;;7.36;100.00;99674.59;4985611;28;21083;-72
2022/11/24 03:41:22;;;;;;;3.10;1.90;;;;;;;7.32;100.00;99668.59;4986447;28;20181;-72
2022/11/24 03:43:48;;;;;;;3.90;2.20;;;;;;;7.25;100.00;99677.25;4985763;28;21036;-72
2022/11/24 03:46:13;;;;;;;5.93;2.80;;;;;;;7.26;100.00;99686.69;4987829;28;21420;-72
2022/11/24 03:48:39;;;;;;;5.30;2.23;;;;;;;7.27;100.00;99686.66;4986686;28;20300;-73
2022/11/24 03:51:04;;;;;;;4.27;2.13;;;;;;;7.36;100.00;99684.88;4986214;28;20264;-72
2022/11/24 03:53:31;;;;;;;6.53;2.63;;;;;;;7.44;100.00;99691.69;4984928;28;20184;-72
2022/11/24 03:55:56;;;;;;;8.73;2.77;;;;;;;7.51;100.00;99695.09;4987265;28;20187;-72
2022/11/24 03:58:23;;;;;;;7.90;2.47;;;;;;;7.57;100.00;99689.03;4986541;28;20212;-72
2022/11/24 04:00:50;;;;;;;5.10;2.40;;;;;;;7.61;100.00;99689.03;4985663;28;20209;-72
2022/11/24 04:03:16;;;;;;;6.57;2.77;;;;;;;7.61;100.00;99691.63;4984127;28;20193;-72
2022/11/24 04:05:41;;;;;;;6.27;3.20;;;;;;;7.63;100.00;99699.31;4986389;28;20683;-71
2022/11/24 04:08:07;;;;;;;8.30;6.63;;;;;;;7.66;100.00;99694.16;4983412;28;21266;-72
2022/11/24 04:10:35;;;;;;;10.07;6.67;;;;;;;7.69;100.00;99696.72;4982138;28;20234;-73
2022/11/24 04:13:02;;;;;;;12.13;9.37;;;;;;;7.72;100.00;99694.09;4985983;28;20251;-72
2022/11/24 04:15:28;;;;;;;12.33;8.60;;;;;;;7.76;100.00;99698.38;4985360;28;20835;-74
2022/11/24 04:17:54;;;;;;;9.30;7.57;;;;;;;7.81;100.00;99698.34;4974011;28;20195;-72
2022/11/24 04:20:19;;;;;;;10.73;6.80;;;;;;;7.84;100.00;99708.63;4979931;28;20244;-72
2022/11/24 04:22:45;;;;;;;9.47;5.63;;;;;;;7.88;100.00;99720.63;4984285;28;20266;-73
2022/11/24 04:25:11;;;;;;;9.03;5.23;;;;;;;7.92;100.00;99713.72;4984804;28;20185;-72
2022/11/24 04:27:36;;;;;;;7.43;4.50;;;;;;;7.94;100.00;99712.84;4987488;28;20560;-72
2022/11/24 04:30:05;;;;;;;5.57;3.63;;;;;;;7.94;100.00;99706.84;4987958;28;20197;-72
2022/11/24 04:32:30;;;;;;;4.40;2.87;;;;;;;7.93;100.00;99705.13;4983061;28;20906;-72
2022/11/24 04:34:55;;;;;;;5.77;2.80;;;;;;;7.91;100.00;99712.00;4986081;28;20192;-72
2022/11/24 04:37:21;;;;;;;8.13;3.17;;;;;;;7.90;100.00;99716.31;4984747;28;20181;-72
2022/11/24 04:39:46;;;;;;;5.40;2.23;;;;;;;7.90;100.00;99726.63;4985202;28;20220;-72
2022/11/24 04:42:12;;;;;;;9.53;7.07;;;;;;;7.92;100.00;99729.19;4981375;28;20190;-72
2022/11/24 04:44:37;;;;;;;8.77;4.83;;;;;;;7.93;100.00;99718.88;4982169;28;20188;-71
2022/11/24 04:47:03;;;;;;;10.27;4.10;;;;;;;7.95;100.00;99718.84;4985659;28;20537;-71
2022/11/24 04:49:29;;;;;;;10.80;3.70;;;;;;;7.94;100.00;99724.88;4985042;28;20204;-72
2022/11/24 04:51:54;;;;;;;7.57;2.77;;;;;;;7.90;100.00;99718.91;4985254;28;20251;-74
2022/11/24 04:54:19;;;;;;;7.97;2.67;;;;;;;7.85;100.00;99715.47;4984202;28;20267;-72
2022/11/24 04:56:49;;;;;;;7.53;2.80;;;;;;;7.83;100.00;99719.78;4985368;28;20215;-71
2022/11/24 04:59:15;;;;;;;8.60;2.93;;;;;;;7.84;100.00;99723.25;4979166;28;20563;-71
2022/11/24 05:01:45;;;;;;;6.70;3.00;;;;;;;7.84;100.00;99718.94;4986054;28;20190;-72
2022/11/24 05:04:12;;;;;;;8.87;3.40;;;;;;;7.86;100.00;99724.09;4981807;28;20260;-71
2022/11/24 05:06:38;;;;;;;7.47;3.33;;;;;;;7.91;100.00;99730.91;4982339;28;20184;-72
2022/11/24 05:09:04;;;;;;;9.87;5.60;;;;;;;7.95;100.00;99731.75;4985462;28;20718;-72
2022/11/24 05:11:29;;;;;;;7.00;4.63;;;;;;;7.99;100.00;99742.88;4984447;28;20711;-72
2022/11/24 05:13:54;;;;;;;8.60;4.53;;;;;;;8.02;100.00;99751.44;4981914;28;20185;-71
2022/11/24 05:16:20;;;;;;;9.00;4.80;;;;;;;8.05;100.00;99743.69;4984989;28;20182;-72
2022/11/24 05:18:45;;;;;;;9.63;6.43;;;;;;;8.07;100.00;99738.53;4982344;28;20219;-73
2022/11/24 05:21:14;;;;;;;9.80;4.17;;;;;;;8.13;100.00;99743.63;4985484;28;20193;-71
2022/11/24 05:23:39;;;;;;;8.47;3.67;;;;;;;8.17;100.00;99747.03;4982568;28;20344;-72
2022/11/24 05:26:04;;;;;;;9.10;5.23;;;;;;;8.21;100.00;99746.13;4985655;28;20259;-72
2022/11/24 05:28:30;;;;;;;9.53;5.17;;;;;;;8.25;100.00;99745.25;4985204;28;20239;-72
2022/11/24 05:31:03;;;;;;;8.70;3.70;;;;;;;8.27;100.00;99753.84;4985168;28;20212;-72
2022/11/24 05:33:29;;;;;;;7.90;3.13;;;;;;;8.29;100.00;99753.81;4980906;28;20189;-72
2022/11/24 05:35:58;;;;;;;11.30;2.90;;;;;;;8.28;100.00;99750.41;4985663;28;20189;-74
2022/11/24 05:38:23;;;;;;;9.93;2.90;;;;;;;8.31;100.00;99749.50;4985306;28;20845;-70
2022/11/24 05:40:49;;;;;;;7.87;2.90;;;;;;;8.32;100.00;99749.47;4985343;28;20204;-72
2022/11/24 05:43:15;;;;;;;9.03;3.30;;;;;;;8.31;100.00;99744.34;4982936;28;20188;-72
2022/11/24 05:45:42;;;;;;;10.03;3.03;;;;;;;8.33;100.00;99756.34;4984496;28;20189;-72
2022/11/24 05:48:15;;;;;;;9.10;3.00;;;;;;;8.35;100.00;99759.78;4983570;28;20205;-72
2022/11/24 05:50:40;;;;;;;11.27;3.23;;;;;;;8.38;100.00;99770.06;4985056;28;20548;-72
2022/11/24 05:53:09;;;;;;;10.03;3.13;;;;;;;8.39;100.00;99764.03;4984234;28;20239;-72
2022/11/24 05:55:35;;;;;;;7.03;2.97;;;;;;;8.39;100.00;99774.34;4985909;28;20193;-73
2022/11/24 05:58:04;;;;;;;9.40;2.77;;;;;;;8.41;100.00;99791.53;4979215;28;20177;-72
2022/11/24 06:00:31;;;;;;;8.53;3.07;;;;;;;8.41;100.00;99792.38;4985879;28;20212;-72
2022/11/24 06:02:57;;;;;;;7.60;2.63;;;;;;;8.41;100.00;99799.28;4984744;28;20197;-71
2022/11/24 06:05:23;;;;;;;6.50;2.80;;;;;;;8.38;100.00;99800.16;4982467;28;20200;-72
2022/11/24 06:07:48;;;;;;;9.67;3.30;;;;;;;8.39;100.00;99800.16;4987633;28;20182;-73
2022/11/24 06:10:15;;;;;;;12.00;3.33;;;;;;;8.38;100.00;99805.31;4986242;28;20216;-72
2022/11/24 06:12:41;;;;;;;7.50;2.93;;;;;;;8.34;100.00;99813.94;4994625;28;20562;-72
2022/11/24 06:15:06;;;;;;;5.97;2.27;;;;;;;8.33;100.00;99820.81;4985903;28;20188;-72
2022/11/24 06:17:32;;;;;;;10.80;3.30;;;;;;;8.31;100.00;99829.44;4986348;28;20182;-72
2022/11/24 06:19:57;;;;;;;10.10;3.63;;;;;;;8.29;100.00;99829.44;4982814;28;20597;-72
2022/11/24 06:22:22;;;;;;;10.93;3.70;;;;;;;8.28;100.00;99837.16;4984443;28;20601;-72
2022/11/24 06:24:49;;;;;;;12.57;3.80;;;;;;;8.31;100.00;99839.75;4988874;28;20243;-73
2022/11/24 06:27:14;;;;;;;10.20;3.73;;;;;;;8.30;100.00;99856.94;4988474;28;20689;-72
2022/11/24 06:29:40;;;;;;;9.67;2.83;;;;;;;8.28;100.00;99844.91;4986390;28;20209;-72
2022/11/24 06:32:05;;;;;;;9.37;3.50;;;;;;;8.26;100.00;99860.41;4981606;28;20276;-72
2022/11/24 06:34:30;;;;;;;10.73;4.03;;;;;;;8.24;100.00;99860.38;4986954;28;20185;-71
2022/11/24 06:36:56;;;;;;;9.43;3.70;;;;;;;8.23;100.00;99865.56;4984560;28;20276;-71
2022/11/24 06:39:21;;;;;;;8.67;3.40;;;;;;;8.23;100.00;99874.19;4984592;28;20755;-72
2022/11/24 06:41:48;;;;;;;10.30;3.90;;;;;;;8.21;100.00;99873.31;4985368;28;20200;-72
2022/11/24 06:44:14;;;;;;;13.07;4.63;;;;;;;8.22;100.00;99880.19;4984632;28;21391;-72
2022/11/24 06:46:39;;;;;;;10.07;3.57;;;;;;;8.18;100.00;99881.06;4986339;28;20191;-73
2022/11/24 06:49:04;;;;;;;10.53;3.97;;;;;;;8.14;100.00;99887.09;4981702;28;20220;-71
2022/11/24 06:51:30;;;;;;;12.03;3.50;;;;;;;8.07;100.00;99890.59;4990735;28;20219;-72
2022/11/24 06:53:55;;;;;;;8.57;3.43;;;;;;;8.03;100.00;99900.03;4982681;28;20185;-71
2022/11/24 06:56:21;;;;;;;11.17;3.50;;;;;;;8.00;100.00;99894.91;4987969;28;20268;-71
2022/11/24 06:58:49;;;;;;;9.17;3.57;;;;;;;7.99;100.00;99892.31;4981606;28;20821;-71
2022/11/24 07:01:16;;;;;;;11.50;3.83;;;;;;;7.96;100.00;99900.06;4986304;28;20272;-71
2022/11/24 07:03:41;;;;;;;8.83;3.23;;;;;;;7.93;100.00;99900.94;4985420;28;20292;-73
2022/11/24 07:06:07;;;;;;;10.77;3.87;;;;;;;7.92;100.00;99910.41;4985705;28;21474;-71
2022/11/24 07:08:32;;;;;;;8.97;3.90;;;;;;;7.87;100.00;99916.41;4984254;28;20220;-71
2022/11/24 07:11:06;;;;;;;12.67;3.73;;;;;;;7.88;100.00;99910.41;4987196;28;20185;-71
2022/11/24 07:13:32;;;;;;;8.30;3.10;;;;;;;7.89;100.00;99891.50;4986451;28;20198;-71
2022/11/24 07:15:58;;;;;;;9.40;2.93;;;;;;;7.85;100.00;99889.81;4988819;28;20189;-74
2022/11/24 07:18:24;;;;;;;7.77;2.60;;;;;;;7.81;100.00;99903.56;4987288;28;20263;-72
2022/11/24 07:20:49;;;;;;;9.40;3.10;;;;;;;7.79;100.00;99903.56;4991213;28;20217;-74
2022/11/24 07:23:14;;;;;;;11.00;2.70;;;;;;;7.73;100.00;99889.00;5013690;28;20177;-74
2022/11/24 07:25:40;;;;;;;6.80;2.87;;;;;;;7.69;100.00;99894.16;5003129;28;20279;-72
2022/11/24 07:28:05;;;;;;;7.70;2.70;;;;;;;7.67;100.00;99904.50;4989209;28;20654;-71
2022/11/24 07:30:30;;;;;;;7.40;2.77;;;;;;;7.66;100.00;99912.19;4979446;28;20565;-72
2022/11/24 07:33:02;;;;;;;5.73;2.23;;;;;;;7.65;100.00;99923.34;4987167;28;20944;-72
2022/11/24 07:35:29;;;;;;;5.53;2.27;;;;;;;7.62;100.00;99932.84;4988539;28;20212;-72
2022/11/24 07:37:58;;;;;;;5.17;2.07;;;;;;;7.64;100.00;99932.81;4985030;28;20238;-71
2022/11/24 07:40:25;;;;;;;5.40;1.67;;;;;;;7.62;100.00;99932.84;4983287;28;20197;-72
2022/11/24 07:42:51;;;;;;;6.13;2.03;;;;;;;7.61;100.00;99941.41;4979799;28;20201;-72
2022/11/24 07:45:16;;;;;;;4.93;1.77;;;;;;;7.60;100.00;99947.44;4984356;28;20200;-72
2022/11/24 07:47:41;;;;;;;5.73;1.73;;;;;;;7.60;100.00;99949.13;4982496;28;20196;-72
2022/11/24 07:50:08;;;;;;;4.60;1.80;;;;;;;7.59;100.00;99953.44;4986802;28;20215;-72
2022/11/24 07:52:34;;;;;;;4.70;1.93;;;;;;;7.60;100.00;99955.16;4986079;28;20228;-72
2022/11/24 07:54:59;;;;;;;4.10;1.50;;;;;;;7.60;100.00;99959.44;4988448;28;20213;-71
2022/11/24 07:57:24;;;;;;;2.40;1.30;;;;;;;7.60;100.00;99951.72;4987036;28;20184;-72
2022/11/24 07:59:50;;;;;;;4.87;1.90;;;;;;;7.57;100.00;99959.44;4987997;28;20212;-71
2022/11/24 08:02:15;;;;;;;4.33;1.40;;;;;;;7.55;100.00;99954.28;4987800;28;20204;-71
2022/11/24 08:04:40;;;;;;;3.77;1.23;;;;;;;7.51;100.00;99955.16;4988173;28;20185;-72
2022/11/24 08:07:06;;;;;;;2.53;1.20;;;;;;;7.50;100.00;99957.75;4988108;28;20192;-71
2022/11/24 08:09:31;;;;;;;3.33;1.10;;;;;;;7.52;100.00;99958.59;4985095;28;20705;-71
2022/11/24 08:11:56;;;;;;;1.67;1.00;;;;;;;7.56;100.00;99970.63;4988114;28;20184;-72
2022/11/24 08:14:22;;;;;;;2.43;1.27;;;;;;;7.66;100.00;99976.59;4990338;28;20272;-72
2022/11/24 08:16:47;;;;;;;1.67;0.90;;;;;;;7.78;100.00;99974.84;4988825;28;20189;-72
2022/11/24 08:19:12;;;;;;;1.70;1.10;;;;;;;7.86;100.00;99976.56;4988044;28;20212;-72
2022/11/24 08:21:38;;;;;;;2.87;1.60;;;;;;;7.92;100.00;99979.97;4988067;28;20688;-72
2022/11/24 08:24:03;;;;;;;3.43;1.30;;;;;;;7.99;100.00;99985.09;4981794;28;20289;-73
2022/11/24 08:26:29;;;;;;;2.23;1.20;;;;;;;8.02;100.00;99982.50;4988131;28;20221;-71
2022/11/24 08:28:57;;;;;;;1.57;1.00;;;;;;;8.07;100.00;99985.94;4987024;28;20204;-72
2022/11/24 08:31:25;;;;;;;1.93;0.83;;;;;;;8.08;100.00;99980.78;4983706;28;20668;-72
2022/11/24 08:33:53;;;;;;;1.40;1.10;;;;;;;8.02;100.00;99975.63;4982446;28;20627;-72
2022/11/24 08:36:19;;;;;;;1.40;1.00;;;;;;;7.97;100.00;99989.38;4983784;28;20200;-71
2022/11/24 08:38:45;;;;;;;2.50;1.03;;;;;;;7.92;100.00;99985.13;4985112;28;20205;-72
2022/11/24 08:41:15;;;;;;;3.10;1.10;;;;;;;7.86;100.00;99999.75;4986543;28;20197;-72
2022/11/24 08:43:41;;;;;;;1.80;1.30;;;;;;;7.86;100.00;100005.75;4986402;28;20242;-72
2022/11/24 08:46:09;;;;;;;1.83;1.40;;;;;;;7.90;100.00;100002.31;4985284;28;20887;-71
2022/11/24 08:48:35;;;;;;;1.80;0.90;;;;;;;7.93;100.00;100002.31;4986152;28;20213;-70
2022/11/24 08:51:13;;;;;;;3.10;1.20;;;;;;;8.00;100.00;100004.84;4986212;28;20538;-73
2022/11/24 08:53:39;;;;;;;1.20;0.70;;;;;;;8.07;100.00;100006.56;4982023;28;20200;-72
2022/11/24 08:56:05;;;;;;;1.73;0.90;;;;;;;8.14;100.00;100023.72;4983954;28;20280;-72
2022/11/24 08:58:31;;;;;;;1.57;1.27;;;;;;;8.23;100.00;100026.28;4986728;28;20857;-71
2022/11/24 09:01:03;;;;;;;2.77;1.30;;;;;;;8.31;100.00;100023.66;4987140;28;20209;-72
2022/11/24 09:03:29;;;;;;;2.40;0.90;;;;;;;8.34;100.00;100027.94;4978519;28;20945;-72
2022/11/24 09:05:54;;;;;;;2.47;1.10;;;;;;;8.36;100.00;100037.38;4978698;28;20199;-72
2022/11/24 09:08:19;;;;;;;2.13;1.27;;;;;;;8.40;100.00;100038.22;4982544;28;20692;-72
2022/11/24 09:10:45;;;;;;;3.10;1.17;;;;;;;8.45;100.00;100043.38;4983340;28;20193;-72
2022/11/24 09:13:10;;;;;;;2.77;1.30;;;;;;;8.49;100.00;100048.53;4984850;28;20189;-72
2022/11/24 09:15:36;;;;;;;2.33;1.13;;;;;;;8.49;100.00;100064.00;4986950;28;20674;-72
2022/11/24 09:18:01;;;;;;;2.53;1.30;;;;;;;8.47;100.00;100060.56;4985467;28;20189;-71
2022/11/24 09:20:26;;;;;;;2.10;1.03;;;;;;;8.49;100.00;100064.00;4984828;28;20204;-72
2022/11/24 09:22:52;;;;;;;2.90;1.20;;;;;;;8.49;100.00;100061.44;4982360;28;20196;-71
2022/11/24 09:25:17;;;;;;;4.77;1.50;;;;;;;8.53;100.00;100068.31;4982110;28;20783;-72
2022/11/24 09:27:42;;;;;;;2.87;1.40;;;;;;;8.59;100.00;100066.53;4985811;28;20192;-71
2022/11/24 09:30:08;;;;;;;2.07;1.30;;;;;;;8.67;100.00;100078.56;4986576;28;20208;-72
2022/11/24 09:32:34;;;;;;;2.63;1.27;;;;;;;8.69;100.00;100089.72;4983157;28;20672;-71
2022/11/24 09:34:59;;;;;;;4.23;1.90;;;;;;;8.72;100.00;100093.16;4984484;28;20194;-72
2022/11/24 09:37:24;;;;;;;3.57;1.63;;;;;;;8.74;100.00;100102.59;4988432;28;20188;-73
2022/11/24 09:39:50;;;;;;;4.90;1.83;;;;;;;8.76;100.00;100107.78;4984946;28;20229;-72
2022/11/24 09:42:39;;;;;;;4.40;1.73;;;;;;;8.80;100.00;100106.88;4985722;28;20339;-72
2022/11/24 09:45:23;;;;;;;5.00;2.10;;;;;;;8.83;100.00;100112.91;4987148;28;20729;-73
2022/11/24 09:48:02;;;;;;;4.20;1.93;;;;;;;8.87;100.00;100118.91;4984907;28;20196;-73
2022/11/24 09:50:33;;;;;;;6.17;2.33;;;;;;;8.98;100.00;100122.28;4987640;28;20181;-72
2022/11/24 09:53:33;;;;;;;5.13;2.37;;;;;;;9.10;100.00;100123.94;4984443;28;20628;-72
2022/11/24 09:56:05;;;;;;;6.23;2.30;;;;;;;9.23;100.00;100119.53;4987970;28;20185;-72
2022/11/24 09:58:44;;;;;;;5.07;2.13;;;;;;;9.38;100.00;100117.72;4986083;28;20952;-72
2022/11/24 10:01:15;;;;;;;3.43;2.27;;;;;;;9.49;100.00;100126.28;4983943;28;20189;-72
2022/11/24 10:03:44;;;;;;;3.53;2.13;;;;;;;9.61;100.00;100127.88;4980026;28;21513;-71
2022/11/24 10:06:23;;;;;;;3.23;1.70;;;;;;;9.70;100.00;100121.81;4984677;28;20181;-71
2022/11/24 10:09:07;;;;;;;4.30;2.23;;;;;;;9.79;100.00;100120.88;4989484;28;20221;-72
2022/11/24 10:11:51;;;;;;;3.57;2.10;;;;;;;9.81;100.00;100112.25;4987715;28;20239;-72
2022/11/24 10:14:54;;;;;;;2.70;1.80;;;;;;;9.88;100.00;100118.22;4988150;28;20192;-72
2022/11/24 10:17:41;;;;;;;3.70;1.80;;;;;;;9.98;100.00;100124.19;4977389;28;20193;-72
2022/11/24 10:20:18;;;;;;;7.07;2.57;;;;;;;10.02;100.00;100118.06;4990763;28;20224;-72
2022/11/24 10:22:57;;;;;;;5.93;2.33;;;;;;;10.01;100.00;100122.41;4983324;28;20193;-73
2022/11/24 10:25:35;;;;;;;4.70;2.00;;;;;;;10.01;100.00;100132.75;4975425;28;20963;-72
2022/11/24 10:28:11;;;;;;;3.57;2.10;;;;;;;10.04;100.00;100129.28;4966759;28;20217;-71
2022/11/24 10:30:36;;;;;;;5.57;2.17;;;;;;;10.04;100.00;100134.44;4984543;28;20224;-72
2022/11/24 10:33:18;;;;;;;6.90;2.80;;;;;;;10.05;100.00;100136.16;4987234;28;20182;-72
2022/11/24 10:36:09;;;;;;;6.00;2.80;;;;;;;10.15;100.00;100131.75;4985193;28;20181;-72
2022/11/24 10:38:42;;;;;;;6.30;2.70;;;;;;;10.18;100.00;100121.41;4984269;28;20346;-73
2022/11/24 10:41:19;;;;;;;5.80;2.70;;;;;;;10.15;100.00;100129.19;4989155;28;20179;-74
2022/11/24 10:43:44;;;;;;;4.87;2.40;;;;;;;10.06;100.00;100130.13;4987419;28;20189;-72
2022/11/24 10:46:23;;;;;;;7.07;3.33;;;;;;;10.02;100.00;100129.28;4987240;28;20255;-72
2022/11/24 10:49:14;;;;;;;5.83;2.30;;;;;;;10.09;100.00;100127.50;4987724;28;20656;-72
2022/11/24 10:51:50;;;;;;;8.00;2.97;;;;;;;10.31;100.00;100135.91;4982904;28;20975;-73
2022/11/24 10:54:17;;;;;;;8.93;3.33;;;;;;;10.57;100.00;100123.59;4985668;28;20268;-69
2022/11/24 10:56:45;;;;;;;6.00;2.63;;;;;;;10.76;100.00;100130.25;4988632;28;20188;-72
2022/11/24 10:59:31;;;;;;;8.20;3.20;;;;;;;10.90;100.00;100126.63;4987060;28;20232;-73
2022/11/24 11:01:57;;;;;;;8.47;3.10;;;;;;;10.95;100.00;100133.47;4988964;28;20536;-72
2022/11/24 11:04:32;;;;;;;6.53;2.93;;;;;;;11.02;100.00;100131.66;4986559;28;20177;-71
2022/11/24 11:07:26;;;;;;;6.90;3.00;;;;;;;11.09;100.00;100122.09;4988959;28;20721;-72
2022/11/24 11:10:24;;;;;;;5.23;3.20;;;;;;;11.13;100.00;100122.00;4975394;28;20218;-72
2022/11/24 11:12:49;;;;;;;5.13;2.60;;;;;;;11.19;100.00;100128.84;4962700;28;20200;-72
2022/11/24 11:15:25;;;;;;;5.83;3.10;;;;;;;11.28;100.00;100127.84;4988610;28;20234;-72
2022/11/24 11:17:53;;;;;;;5.70;3.17;;;;;;;11.32;100.00;100128.66;4986153;28;20651;-72
2022/11/24 11:20:27;;;;;;;5.80;2.80;;;;;;;11.41;100.00;100125.94;4988133;28;20206;-72
2022/11/24 11:22:55;;;;;;;5.03;2.67;;;;;;;11.59;100.00;100128.22;4986660;28;20247;-73
2022/11/24 11:25:32;;;;;;;7.43;2.67;;;;;;;11.78;100.00;100127.94;4987578;28;20203;-72
2022/11/24 11:28:22;;;;;;;5.60;2.80;;;;;;;11.82;100.00;100128.75;4985632;28;20233;-72
2022/11/24 11:30:58;;;;;;;5.90;2.40;;;;;;;11.81;100.00;100127.03;4988751;28;20201;-72
2022/11/24 11:33:25;;;;;;;5.90;2.67;;;;;;;11.75;100.00;100133.16;4985716;28;20195;-72